sensor_id;sensor_type;location;lat;lon;timestamp;P1;durP1;ratioP1;P2;durP2;ratioP2
10333;SDS011;5212;47.892;16.406;2023-02-01T01:51:31;1.83;;;1.70;;
10333;SDS011;5212;47.892;16.406;2023-02-01T01:53:15;3.30;;;2.20;;
10333;SDS011;5212;47.892;16.406;2023-02-01T02:52:51;1.97;;;1.57;;
10333;SDS011;5212;47.892;16.406;2023-02-01T03:00:22;2.67;;;1.30;;
10333;SDS011;5212;47.892;16.406;2023-02-01T06:22:00;4.00;;;2.83;;
10333;SDS011;5212;47.892;16.406;2023-02-01T06:24:27;3.43;;;2.77;;
10333;SDS011;5212;47.892;16.406;2023-02-01T06:26:53;3.87;;;2.70;;
10333;SDS011;5212;47.892;16.406;2023-02-01T06:29:22;2.87;;;2.57;;
10333;SDS011;5212;47.892;16.406;2023-02-01T06:31:49;3.67;;;2.60;;
10333;SDS011;5212;47.892;16.406;2023-02-01T06:34:15;3.80;;;2.73;;
10333;SDS011;5212;47.892;16.406;2023-02-01T06:36:42;4.50;;;2.97;;
10333;SDS011;5212;47.892;16.406;2023-02-01T06:39:09;4.17;;;3.03;;
10333;SDS011;5212;47.892;16.406;2023-02-01T06:41:37;3.30;;;3.00;;
10333;SDS011;5212;47.892;16.406;2023-02-01T06:44:04;4.37;;;3.00;;
10333;SDS011;5212;47.892;16.406;2023-02-01T06:46:30;4.50;;;2.90;;
10333;SDS011;5212;47.892;16.406;2023-02-01T06:48:57;4.73;;;3.33;;
10333;SDS011;5212;47.892;16.406;2023-02-01T06:51:24;4.73;;;2.87;;
10333;SDS011;5212;47.892;16.406;2023-02-01T06:53:50;4.47;;;2.80;;
10333;SDS011;5212;47.892;16.406;2023-02-01T06:56:18;4.23;;;3.00;;
10333;SDS011;5212;47.892;16.406;2023-02-01T06:58:44;4.83;;;2.70;;
10333;SDS011;5212;47.892;16.406;2023-02-01T07:01:11;3.03;;;2.40;;
10333;SDS011;5212;47.892;16.406;2023-02-01T07:03:38;3.40;;;2.67;;
10333;SDS011;5212;47.892;16.406;2023-02-01T07:06:05;3.93;;;2.77;;
10333;SDS011;5212;47.892;16.406;2023-02-01T07:08:33;2.80;;;2.60;;
10333;SDS011;5212;47.892;16.406;2023-02-01T07:11:01;3.40;;;2.80;;
10333;SDS011;5212;47.892;16.406;2023-02-01T07:13:28;3.93;;;2.63;;
10333;SDS011;5212;47.892;16.406;2023-02-01T07:15:57;3.10;;;2.60;;
10333;SDS011;5212;47.892;16.406;2023-02-01T07:18:24;4.30;;;2.77;;
10333;SDS011;5212;47.892;16.406;2023-02-01T07:20:51;5.20;;;3.03;;
10333;SDS011;5212;47.892;16.406;2023-02-01T07:23:17;3.63;;;2.80;;
10333;SDS011;5212;47.892;16.406;2023-02-01T07:25:52;3.70;;;2.83;;
10333;SDS011;5212;47.892;16.406;2023-02-01T07:28:19;5.13;;;2.67;;
10333;SDS011;5212;47.892;16.406;2023-02-01T07:30:46;3.20;;;2.90;;
10333;SDS011;5212;47.892;16.406;2023-02-01T07:33:16;3.13;;;2.60;;
10333;SDS011;5212;47.892;16.406;2023-02-01T07:35:46;3.07;;;2.73;;
10333;SDS011;5212;47.892;16.406;2023-02-01T07:38:13;3.83;;;2.90;;
10333;SDS011;5212;47.892;16.406;2023-02-01T07:40:39;3.83;;;2.90;;
10333;SDS011;5212;47.892;16.406;2023-02-01T07:43:05;4.73;;;2.83;;
10333;SDS011;5212;47.892;16.406;2023-02-01T07:45:34;4.03;;;3.10;;
10333;SDS011;5212;47.892;16.406;2023-02-01T07:48:01;4.07;;;2.90;;
10333;SDS011;5212;47.892;16.406;2023-02-01T07:50:28;3.27;;;2.90;;
10333;SDS011;5212;47.892;16.406;2023-02-01T07:52:54;5.07;;;3.43;;
10333;SDS011;5212;47.892;16.406;2023-02-01T07:55:21;3.90;;;3.10;;
10333;SDS011;5212;47.892;16.406;2023-02-01T07:57:47;4.13;;;3.30;;
10333;SDS011;5212;47.892;16.406;2023-02-01T08:00:14;4.50;;;3.20;;
10333;SDS011;5212;47.892;16.406;2023-02-01T08:02:59;4.03;;;3.00;;
10333;SDS011;5212;47.892;16.406;2023-02-01T08:05:26;3.77;;;2.80;;
10333;SDS011;5212;47.892;16.406;2023-02-01T08:07:53;3.23;;;2.80;;
10333;SDS011;5212;47.892;16.406;2023-02-01T08:10:19;4.37;;;2.83;;
10333;SDS011;5212;47.892;16.406;2023-02-01T08:12:46;3.40;;;3.00;;
10333;SDS011;5212;47.892;16.406;2023-02-01T08:15:13;3.60;;;2.90;;
10333;SDS011;5212;47.892;16.406;2023-02-01T08:17:45;3.00;;;2.70;;
10333;SDS011;5212;47.892;16.406;2023-02-01T08:20:12;3.93;;;2.90;;
10333;SDS011;5212;47.892;16.406;2023-02-01T08:22:40;4.50;;;2.70;;
10333;SDS011;5212;47.892;16.406;2023-02-01T08:25:06;5.03;;;3.13;;
10333;SDS011;5212;47.892;16.406;2023-02-01T08:27:33;3.33;;;2.57;;
10333;SDS011;5212;47.892;16.406;2023-02-01T08:30:00;3.53;;;3.03;;
10333;SDS011;5212;47.892;16.406;2023-02-01T08:32:26;3.90;;;3.03;;
10333;SDS011;5212;47.892;16.406;2023-02-01T08:34:53;3.30;;;2.67;;
10333;SDS011;5212;47.892;16.406;2023-02-01T08:37:19;3.90;;;2.80;;
10333;SDS011;5212;47.892;16.406;2023-02-01T08:39:48;6.23;;;5.00;;
10333;SDS011;5212;47.892;16.406;2023-02-01T08:42:15;5.90;;;4.27;;
10333;SDS011;5212;47.892;16.406;2023-02-01T08:45:00;4.90;;;3.73;;
10333;SDS011;5212;47.892;16.406;2023-02-01T08:47:27;5.07;;;3.10;;
10333;SDS011;5212;47.892;16.406;2023-02-01T08:49:53;2.73;;;2.43;;
10333;SDS011;5212;47.892;16.406;2023-02-01T08:52:20;3.60;;;2.30;;
10333;SDS011;5212;47.892;16.406;2023-02-01T08:54:46;4.93;;;4.23;;
10333;SDS011;5212;47.892;16.406;2023-02-01T08:57:14;3.60;;;2.67;;
10333;SDS011;5212;47.892;16.406;2023-02-01T08:59:40;5.47;;;4.43;;
10333;SDS011;5212;47.892;16.406;2023-02-01T09:02:09;6.73;;;4.90;;
10333;SDS011;5212;47.892;16.406;2023-02-01T09:04:38;10.97;;;8.73;;
10333;SDS011;5212;47.892;16.406;2023-02-01T09:07:04;16.63;;;13.60;;
10333;SDS011;5212;47.892;16.406;2023-02-01T09:09:31;6.03;;;4.47;;
10333;SDS011;5212;47.892;16.406;2023-02-01T09:11:58;3.53;;;2.60;;
10333;SDS011;5212;47.892;16.406;2023-02-01T09:14:25;2.70;;;2.23;;
10333;SDS011;5212;47.892;16.406;2023-02-01T09:16:51;7.67;;;5.50;;
10333;SDS011;5212;47.892;16.406;2023-02-01T09:19:18;4.53;;;4.10;;
10333;SDS011;5212;47.892;16.406;2023-02-01T09:21:44;3.80;;;3.20;;
10333;SDS011;5212;47.892;16.406;2023-02-01T09:24:11;18.60;;;13.80;;
10333;SDS011;5212;47.892;16.406;2023-02-01T09:26:37;24.83;;;21.13;;
10333;SDS011;5212;47.892;16.406;2023-02-01T09:29:06;18.13;;;13.50;;
10333;SDS011;5212;47.892;16.406;2023-02-01T09:31:35;28.53;;;20.77;;
10333;SDS011;5212;47.892;16.406;2023-02-01T09:34:02;11.27;;;8.60;;
10333;SDS011;5212;47.892;16.406;2023-02-01T09:36:29;7.73;;;3.90;;
10333;SDS011;5212;47.892;16.406;2023-02-01T09:38:56;2.87;;;2.20;;
10333;SDS011;5212;47.892;16.406;2023-02-01T09:41:26;5.33;;;4.60;;
10333;SDS011;5212;47.892;16.406;2023-02-01T09:44:00;7.47;;;6.23;;
10333;SDS011;5212;47.892;16.406;2023-02-01T09:46:33;3.50;;;2.77;;
10333;SDS011;5212;47.892;16.406;2023-02-01T09:49:01;6.00;;;5.03;;
10333;SDS011;5212;47.892;16.406;2023-02-01T09:51:31;5.33;;;4.00;;
10333;SDS011;5212;47.892;16.406;2023-02-01T09:54:00;14.63;;;12.00;;
10333;SDS011;5212;47.892;16.406;2023-02-01T09:56:30;25.57;;;20.00;;
10333;SDS011;5212;47.892;16.406;2023-02-01T09:59:01;4.30;;;3.20;;
10333;SDS011;5212;47.892;16.406;2023-02-01T10:01:32;2.27;;;1.77;;
10333;SDS011;5212;47.892;16.406;2023-02-01T10:04:01;2.20;;;1.80;;
10333;SDS011;5212;47.892;16.406;2023-02-01T10:06:31;2.33;;;1.60;;
10333;SDS011;5212;47.892;16.406;2023-02-01T10:09:06;2.20;;;1.60;;
10333;SDS011;5212;47.892;16.406;2023-02-01T10:11:41;2.40;;;1.80;;
10333;SDS011;5212;47.892;16.406;2023-02-01T10:14:25;2.20;;;1.40;;
10333;SDS011;5212;47.892;16.406;2023-02-01T10:17:07;1.53;;;1.40;;
10333;SDS011;5212;47.892;16.406;2023-02-01T10:19:39;2.30;;;1.30;;
10333;SDS011;5212;47.892;16.406;2023-02-01T10:22:10;2.60;;;1.40;;
10333;SDS011;5212;47.892;16.406;2023-02-01T10:24:39;1.73;;;1.30;;
10333;SDS011;5212;47.892;16.406;2023-02-01T10:27:09;1.57;;;1.30;;
10333;SDS011;5212;47.892;16.406;2023-02-01T10:29:39;2.17;;;1.20;;
10333;SDS011;5212;47.892;16.406;2023-02-01T10:34:50;1.73;;;1.10;;
10333;SDS011;5212;47.892;16.406;2023-02-01T10:37:27;1.10;;;1.00;;
10333;SDS011;5212;47.892;16.406;2023-02-01T10:39:54;1.90;;;1.20;;
10333;SDS011;5212;47.892;16.406;2023-02-01T10:42:24;2.03;;;1.40;;
10333;SDS011;5212;47.892;16.406;2023-02-01T10:44:52;1.13;;;1.03;;
10333;SDS011;5212;47.892;16.406;2023-02-01T10:47:19;1.23;;;1.10;;
10333;SDS011;5212;47.892;16.406;2023-02-01T10:49:49;1.40;;;1.03;;
10333;SDS011;5212;47.892;16.406;2023-02-01T10:52:23;1.40;;;1.10;;
10333;SDS011;5212;47.892;16.406;2023-02-01T10:54:55;1.30;;;1.00;;
10333;SDS011;5212;47.892;16.406;2023-02-01T10:57:23;1.83;;;1.10;;
10333;SDS011;5212;47.892;16.406;2023-02-01T10:59:51;0.80;;;0.80;;
10333;SDS011;5212;47.892;16.406;2023-02-01T11:02:22;1.60;;;1.00;;
10333;SDS011;5212;47.892;16.406;2023-02-01T11:04:59;1.53;;;1.27;;
10333;SDS011;5212;47.892;16.406;2023-02-01T11:07:26;0.90;;;0.80;;
10333;SDS011;5212;47.892;16.406;2023-02-01T11:09:54;1.00;;;0.90;;
10333;SDS011;5212;47.892;16.406;2023-02-01T11:12:34;1.40;;;1.23;;
10333;SDS011;5212;47.892;16.406;2023-02-01T11:15:11;1.40;;;1.10;;
10333;SDS011;5212;47.892;16.406;2023-02-01T11:17:40;2.50;;;1.73;;
10333;SDS011;5212;47.892;16.406;2023-02-01T11:20:14;1.80;;;1.60;;
10333;SDS011;5212;47.892;16.406;2023-02-01T11:22:45;1.37;;;0.90;;
10333;SDS011;5212;47.892;16.406;2023-02-01T11:25:12;1.70;;;1.20;;
10333;SDS011;5212;47.892;16.406;2023-02-01T11:27:41;3.40;;;1.30;;
10333;SDS011;5212;47.892;16.406;2023-02-01T11:30:13;2.73;;;1.73;;
10333;SDS011;5212;47.892;16.406;2023-02-01T11:32:41;1.63;;;1.23;;
10333;SDS011;5212;47.892;16.406;2023-02-01T11:35:07;1.13;;;1.03;;
10333;SDS011;5212;47.892;16.406;2023-02-01T11:37:42;2.80;;;2.50;;
10333;SDS011;5212;47.892;16.406;2023-02-01T11:40:23;4.97;;;3.37;;
10333;SDS011;5212;47.892;16.406;2023-02-01T11:42:53;24.07;;;19.47;;
10333;SDS011;5212;47.892;16.406;2023-02-01T11:45:23;22.63;;;18.77;;
10333;SDS011;5212;47.892;16.406;2023-02-01T11:47:51;24.30;;;17.30;;
10333;SDS011;5212;47.892;16.406;2023-02-01T11:50:21;10.13;;;7.37;;
10333;SDS011;5212;47.892;16.406;2023-02-01T11:52:57;1.57;;;1.30;;
10333;SDS011;5212;47.892;16.406;2023-02-01T11:55:37;1.07;;;0.97;;
10333;SDS011;5212;47.892;16.406;2023-02-01T11:58:15;1.73;;;1.30;;
10333;SDS011;5212;47.892;16.406;2023-02-01T12:00:56;2.37;;;1.50;;
10333;SDS011;5212;47.892;16.406;2023-02-01T12:06:28;2.00;;;1.80;;
10333;SDS011;5212;47.892;16.406;2023-02-01T12:09:05;3.20;;;2.40;;
10333;SDS011;5212;47.892;16.406;2023-02-01T12:11:41;3.23;;;2.37;;
10333;SDS011;5212;47.892;16.406;2023-02-01T12:14:15;4.17;;;2.30;;
10333;SDS011;5212;47.892;16.406;2023-02-01T12:16:57;3.27;;;1.63;;
10333;SDS011;5212;47.892;16.406;2023-02-01T12:19:40;2.40;;;2.00;;
10333;SDS011;5212;47.892;16.406;2023-02-01T12:22:29;2.37;;;1.60;;
10333;SDS011;5212;47.892;16.406;2023-02-01T12:25:06;2.07;;;1.83;;
10333;SDS011;5212;47.892;16.406;2023-02-01T12:27:55;1.90;;;1.60;;
10333;SDS011;5212;47.892;16.406;2023-02-01T12:33:41;2.67;;;1.70;;
10333;SDS011;5212;47.892;16.406;2023-02-01T12:36:16;2.70;;;1.73;;
10333;SDS011;5212;47.892;16.406;2023-02-01T12:38:49;1.77;;;1.30;;
10333;SDS011;5212;47.892;16.406;2023-02-01T12:44:17;2.77;;;1.40;;
10333;SDS011;5212;47.892;16.406;2023-02-01T12:46:52;2.70;;;1.30;;
10333;SDS011;5212;47.892;16.406;2023-02-01T12:49:21;3.37;;;1.53;;
10333;SDS011;5212;47.892;16.406;2023-02-01T12:51:51;1.70;;;1.10;;
10333;SDS011;5212;47.892;16.406;2023-02-01T12:54:23;1.90;;;1.27;;
10333;SDS011;5212;47.892;16.406;2023-02-01T12:56:53;2.17;;;1.30;;
10333;SDS011;5212;47.892;16.406;2023-02-01T12:59:24;2.47;;;1.30;;
10333;SDS011;5212;47.892;16.406;2023-02-01T13:01:55;3.30;;;1.50;;
10333;SDS011;5212;47.892;16.406;2023-02-01T13:04:26;2.27;;;1.60;;
10333;SDS011;5212;47.892;16.406;2023-02-01T13:06:59;2.33;;;1.40;;
10333;SDS011;5212;47.892;16.406;2023-02-01T13:09:29;2.53;;;1.53;;
10333;SDS011;5212;47.892;16.406;2023-02-01T13:12:00;3.83;;;1.60;;
10333;SDS011;5212;47.892;16.406;2023-02-01T13:14:33;3.63;;;1.47;;
10333;SDS011;5212;47.892;16.406;2023-02-01T13:17:05;2.20;;;1.50;;
10333;SDS011;5212;47.892;16.406;2023-02-01T13:19:37;2.67;;;1.57;;
10333;SDS011;5212;47.892;16.406;2023-02-01T13:22:10;2.60;;;1.50;;
10333;SDS011;5212;47.892;16.406;2023-02-01T13:24:40;3.03;;;1.30;;
10333;SDS011;5212;47.892;16.406;2023-02-01T13:27:10;2.67;;;1.70;;
10333;SDS011;5212;47.892;16.406;2023-02-01T13:29:37;3.40;;;1.80;;
10333;SDS011;5212;47.892;16.406;2023-02-01T13:32:20;3.10;;;1.80;;
10333;SDS011;5212;47.892;16.406;2023-02-01T13:35:00;3.87;;;2.00;;
10333;SDS011;5212;47.892;16.406;2023-02-01T13:37:43;2.77;;;1.90;;
10333;SDS011;5212;47.892;16.406;2023-02-01T13:40:27;2.00;;;1.80;;
10333;SDS011;5212;47.892;16.406;2023-02-01T13:43:02;2.30;;;1.77;;
10333;SDS011;5212;47.892;16.406;2023-02-01T13:45:32;2.07;;;1.67;;
10333;SDS011;5212;47.892;16.406;2023-02-01T13:48:02;2.23;;;1.67;;
10333;SDS011;5212;47.892;16.406;2023-02-01T13:50:31;2.00;;;1.80;;
10333;SDS011;5212;47.892;16.406;2023-02-01T13:53:00;2.30;;;1.60;;
10333;SDS011;5212;47.892;16.406;2023-02-01T13:55:43;3.07;;;1.70;;
10333;SDS011;5212;47.892;16.406;2023-02-01T13:58:13;2.10;;;1.63;;
10333;SDS011;5212;47.892;16.406;2023-02-01T14:00:42;2.30;;;1.63;;
10333;SDS011;5212;47.892;16.406;2023-02-01T14:03:16;2.60;;;1.50;;
10333;SDS011;5212;47.892;16.406;2023-02-01T14:05:54;2.30;;;0.83;;
10333;SDS011;5212;47.892;16.406;2023-02-01T14:08:43;0.70;;;0.60;;
10333;SDS011;5212;47.892;16.406;2023-02-01T14:26:03;0.70;;;0.70;;
10333;SDS011;5212;47.892;16.406;2023-02-01T14:28:36;1.23;;;0.77;;
10333;SDS011;5212;47.892;16.406;2023-02-01T14:36:38;0.80;;;0.70;;
10333;SDS011;5212;47.892;16.406;2023-02-01T14:39:17;2.30;;;0.83;;
10333;SDS011;5212;47.892;16.406;2023-02-01T14:47:11;1.93;;;1.13;;
10333;SDS011;5212;47.892;16.406;2023-02-01T14:49:58;1.40;;;0.80;;
10333;SDS011;5212;47.892;16.406;2023-02-01T14:52:41;1.50;;;0.80;;
10333;SDS011;5212;47.892;16.406;2023-02-01T14:55:11;0.70;;;0.70;;
10333;SDS011;5212;47.892;16.406;2023-02-01T14:57:41;2.23;;;0.70;;
10333;SDS011;5212;47.892;16.406;2023-02-01T15:00:16;0.80;;;0.80;;
10333;SDS011;5212;47.892;16.406;2023-02-01T15:02:46;1.73;;;0.63;;
10333;SDS011;5212;47.892;16.406;2023-02-01T15:08:15;0.70;;;0.63;;
10333;SDS011;5212;47.892;16.406;2023-02-01T15:10:44;0.60;;;0.60;;
10333;SDS011;5212;47.892;16.406;2023-02-01T15:13:15;0.67;;;0.60;;
10333;SDS011;5212;47.892;16.406;2023-02-01T15:15:45;0.90;;;0.80;;
10333;SDS011;5212;47.892;16.406;2023-02-01T15:18:26;0.90;;;0.90;;
10333;SDS011;5212;47.892;16.406;2023-02-01T15:20:55;1.00;;;0.90;;
10333;SDS011;5212;47.892;16.406;2023-02-01T15:23:22;1.13;;;1.00;;
10333;SDS011;5212;47.892;16.406;2023-02-01T15:25:49;1.40;;;1.10;;
10333;SDS011;5212;47.892;16.406;2023-02-01T15:28:16;1.37;;;1.20;;
10333;SDS011;5212;47.892;16.406;2023-02-01T15:30:51;1.47;;;1.20;;
10333;SDS011;5212;47.892;16.406;2023-02-01T15:33:18;2.47;;;1.70;;
10333;SDS011;5212;47.892;16.406;2023-02-01T15:35:46;2.53;;;1.70;;
10333;SDS011;5212;47.892;16.406;2023-02-01T15:38:29;4.53;;;2.03;;
10333;SDS011;5212;47.892;16.406;2023-02-01T15:43:33;6.37;;;2.10;;
10333;SDS011;5212;47.892;16.406;2023-02-01T15:46:02;3.40;;;2.13;;
10333;SDS011;5212;47.892;16.406;2023-02-01T15:48:33;3.43;;;2.17;;
10333;SDS011;5212;47.892;16.406;2023-02-01T15:51:03;3.40;;;2.30;;
10333;SDS011;5212;47.892;16.406;2023-02-01T15:53:30;6.23;;;2.20;;
10333;SDS011;5212;47.892;16.406;2023-02-01T15:55:57;3.67;;;2.10;;
10333;SDS011;5212;47.892;16.406;2023-02-01T15:58:25;4.33;;;2.30;;
10333;SDS011;5212;47.892;16.406;2023-02-01T16:00:53;3.80;;;2.20;;
10333;SDS011;5212;47.892;16.406;2023-02-01T16:03:32;3.50;;;2.30;;
10333;SDS011;5212;47.892;16.406;2023-02-01T16:06:05;3.30;;;2.20;;
10333;SDS011;5212;47.892;16.406;2023-02-01T16:08:33;4.83;;;2.70;;
10333;SDS011;5212;47.892;16.406;2023-02-01T16:11:10;5.37;;;2.37;;
10333;SDS011;5212;47.892;16.406;2023-02-01T16:13:42;4.07;;;2.53;;
10333;SDS011;5212;47.892;16.406;2023-02-01T16:16:08;4.40;;;2.37;;
10333;SDS011;5212;47.892;16.406;2023-02-01T16:18:39;2.93;;;2.10;;
10333;SDS011;5212;47.892;16.406;2023-02-01T16:21:06;5.80;;;2.73;;
10333;SDS011;5212;47.892;16.406;2023-02-01T16:23:33;4.57;;;2.37;;
10333;SDS011;5212;47.892;16.406;2023-02-01T16:26:00;5.20;;;2.50;;
10333;SDS011;5212;47.892;16.406;2023-02-01T16:28:31;4.27;;;2.50;;
10333;SDS011;5212;47.892;16.406;2023-02-01T16:30:57;3.90;;;2.40;;
10333;SDS011;5212;47.892;16.406;2023-02-01T16:33:23;5.33;;;2.43;;
10333;SDS011;5212;47.892;16.406;2023-02-01T16:35:50;4.93;;;2.57;;
10333;SDS011;5212;47.892;16.406;2023-02-01T16:38:18;5.57;;;2.90;;
10333;SDS011;5212;47.892;16.406;2023-02-01T16:40:47;5.07;;;3.10;;
10333;SDS011;5212;47.892;16.406;2023-02-01T16:43:15;4.93;;;2.90;;
10333;SDS011;5212;47.892;16.406;2023-02-01T16:45:42;5.97;;;2.87;;
10333;SDS011;5212;47.892;16.406;2023-02-01T16:48:14;4.97;;;2.60;;
10333;SDS011;5212;47.892;16.406;2023-02-01T16:50:44;3.20;;;2.47;;
10333;SDS011;5212;47.892;16.406;2023-02-01T16:53:12;5.10;;;2.80;;
10333;SDS011;5212;47.892;16.406;2023-02-01T16:55:39;4.10;;;2.80;;
10333;SDS011;5212;47.892;16.406;2023-02-01T16:58:08;4.37;;;3.10;;
10333;SDS011;5212;47.892;16.406;2023-02-01T17:00:34;4.40;;;3.20;;
10333;SDS011;5212;47.892;16.406;2023-02-01T17:03:02;7.40;;;3.60;;
10333;SDS011;5212;47.892;16.406;2023-02-01T17:05:30;4.53;;;2.70;;
10333;SDS011;5212;47.892;16.406;2023-02-01T17:07:57;4.03;;;2.80;;
10333;SDS011;5212;47.892;16.406;2023-02-01T17:10:28;4.40;;;2.50;;
10333;SDS011;5212;47.892;16.406;2023-02-01T17:12:55;4.17;;;2.60;;
10333;SDS011;5212;47.892;16.406;2023-02-01T17:15:22;4.17;;;2.57;;
10333;SDS011;5212;47.892;16.406;2023-02-01T17:17:48;2.97;;;2.30;;
10333;SDS011;5212;47.892;16.406;2023-02-01T17:20:19;3.37;;;2.40;;
10333;SDS011;5212;47.892;16.406;2023-02-01T17:22:47;2.33;;;1.70;;
10333;SDS011;5212;47.892;16.406;2023-02-01T17:25:14;5.30;;;2.33;;
10333;SDS011;5212;47.892;16.406;2023-02-01T17:27:41;4.17;;;2.10;;
10333;SDS011;5212;47.892;16.406;2023-02-01T17:30:11;2.83;;;1.80;;
10333;SDS011;5212;47.892;16.406;2023-02-01T17:32:38;2.47;;;1.90;;
10333;SDS011;5212;47.892;16.406;2023-02-01T17:35:08;2.27;;;1.50;;
10333;SDS011;5212;47.892;16.406;2023-02-01T17:37:39;4.40;;;1.80;;
10333;SDS011;5212;47.892;16.406;2023-02-01T17:40:06;4.80;;;2.27;;
10333;SDS011;5212;47.892;16.406;2023-02-01T17:42:34;2.37;;;1.77;;
10333;SDS011;5212;47.892;16.406;2023-02-01T17:45:08;2.93;;;1.90;;
10333;SDS011;5212;47.892;16.406;2023-02-01T17:47:41;3.77;;;2.07;;
10333;SDS011;5212;47.892;16.406;2023-02-01T17:50:08;2.97;;;2.07;;
10333;SDS011;5212;47.892;16.406;2023-02-01T17:52:35;3.03;;;1.73;;
10333;SDS011;5212;47.892;16.406;2023-02-01T17:55:02;2.20;;;1.57;;
10333;SDS011;5212;47.892;16.406;2023-02-01T17:57:31;3.80;;;1.60;;
10333;SDS011;5212;47.892;16.406;2023-02-01T17:59:57;2.53;;;1.87;;
10333;SDS011;5212;47.892;16.406;2023-02-01T18:02:25;2.43;;;1.70;;
10333;SDS011;5212;47.892;16.406;2023-02-01T18:04:52;3.00;;;1.93;;
10333;SDS011;5212;47.892;16.406;2023-02-01T18:07:19;4.37;;;2.43;;
10333;SDS011;5212;47.892;16.406;2023-02-01T18:09:46;3.20;;;2.13;;
10333;SDS011;5212;47.892;16.406;2023-02-01T18:12:14;3.43;;;1.97;;
10333;SDS011;5212;47.892;16.406;2023-02-01T18:14:45;3.33;;;2.40;;
10333;SDS011;5212;47.892;16.406;2023-02-01T18:17:11;3.27;;;2.40;;
10333;SDS011;5212;47.892;16.406;2023-02-01T18:19:39;3.00;;;2.00;;
10333;SDS011;5212;47.892;16.406;2023-02-01T18:22:05;3.00;;;2.30;;
10333;SDS011;5212;47.892;16.406;2023-02-01T18:24:32;2.87;;;1.90;;
10333;SDS011;5212;47.892;16.406;2023-02-01T18:26:59;3.30;;;2.07;;
10333;SDS011;5212;47.892;16.406;2023-02-01T18:29:25;3.50;;;1.70;;
10333;SDS011;5212;47.892;16.406;2023-02-01T18:31:52;3.83;;;1.70;;
10333;SDS011;5212;47.892;16.406;2023-02-01T18:34:19;3.10;;;1.97;;
10333;SDS011;5212;47.892;16.406;2023-02-01T18:36:47;6.33;;;2.10;;
10333;SDS011;5212;47.892;16.406;2023-02-01T18:39:13;5.37;;;2.10;;
10333;SDS011;5212;47.892;16.406;2023-02-01T18:41:41;3.97;;;2.70;;
10333;SDS011;5212;47.892;16.406;2023-02-01T18:44:10;4.83;;;2.73;;
10333;SDS011;5212;47.892;16.406;2023-02-01T18:46:39;4.37;;;2.43;;
10333;SDS011;5212;47.892;16.406;2023-02-01T18:49:05;3.10;;;1.87;;
10333;SDS011;5212;47.892;16.406;2023-02-01T18:51:32;3.33;;;1.77;;
10333;SDS011;5212;47.892;16.406;2023-02-01T18:54:00;3.57;;;1.60;;
10333;SDS011;5212;47.892;16.406;2023-02-01T18:56:26;2.87;;;1.80;;
10333;SDS011;5212;47.892;16.406;2023-02-01T18:58:52;4.47;;;1.83;;
10333;SDS011;5212;47.892;16.406;2023-02-01T19:01:20;3.03;;;1.70;;
10333;SDS011;5212;47.892;16.406;2023-02-01T19:03:46;5.40;;;2.07;;
10333;SDS011;5212;47.892;16.406;2023-02-01T19:06:13;4.00;;;2.00;;
10333;SDS011;5212;47.892;16.406;2023-02-01T19:08:39;5.53;;;2.10;;
10333;SDS011;5212;47.892;16.406;2023-02-01T19:11:07;3.50;;;2.00;;
10333;SDS011;5212;47.892;16.406;2023-02-01T19:13:34;4.30;;;1.90;;
10333;SDS011;5212;47.892;16.406;2023-02-01T19:16:04;3.90;;;1.80;;
10333;SDS011;5212;47.892;16.406;2023-02-01T19:18:31;3.17;;;1.70;;
10333;SDS011;5212;47.892;16.406;2023-02-01T19:21:00;2.60;;;1.80;;
10333;SDS011;5212;47.892;16.406;2023-02-01T19:23:28;3.70;;;1.77;;
10333;SDS011;5212;47.892;16.406;2023-02-01T19:25:54;3.23;;;1.63;;
10333;SDS011;5212;47.892;16.406;2023-02-01T19:28:22;4.10;;;1.70;;
10333;SDS011;5212;47.892;16.406;2023-02-01T19:30:49;4.67;;;2.00;;
10333;SDS011;5212;47.892;16.406;2023-02-01T19:33:15;5.77;;;2.00;;
10333;SDS011;5212;47.892;16.406;2023-02-01T19:35:42;4.70;;;1.70;;
10333;SDS011;5212;47.892;16.406;2023-02-01T19:38:08;3.17;;;1.67;;
10333;SDS011;5212;47.892;16.406;2023-02-01T19:40:35;3.40;;;2.00;;
10333;SDS011;5212;47.892;16.406;2023-02-01T19:43:02;3.33;;;1.70;;
10333;SDS011;5212;47.892;16.406;2023-02-01T19:45:29;2.73;;;1.63;;
10333;SDS011;5212;47.892;16.406;2023-02-01T19:47:56;4.00;;;2.03;;
10333;SDS011;5212;47.892;16.406;2023-02-01T19:50:22;3.03;;;1.73;;
10333;SDS011;5212;47.892;16.406;2023-02-01T19:52:48;3.17;;;1.73;;
10333;SDS011;5212;47.892;16.406;2023-02-01T19:55:15;2.60;;;1.60;;
10333;SDS011;5212;47.892;16.406;2023-02-01T19:57:42;3.63;;;1.50;;
10333;SDS011;5212;47.892;16.406;2023-02-01T20:00:08;2.33;;;1.57;;
10333;SDS011;5212;47.892;16.406;2023-02-01T20:02:37;3.57;;;1.50;;
10333;SDS011;5212;47.892;16.406;2023-02-01T20:05:04;4.27;;;1.80;;
10333;SDS011;5212;47.892;16.406;2023-02-01T20:11:28;3.60;;;1.40;;
10333;SDS011;5212;47.892;16.406;2023-02-01T20:14:28;3.60;;;1.57;;
10333;SDS011;5212;47.892;16.406;2023-02-01T20:16:55;3.63;;;1.80;;
10333;SDS011;5212;47.892;16.406;2023-02-01T20:19:23;2.97;;;1.60;;
10333;SDS011;5212;47.892;16.406;2023-02-01T20:21:50;4.17;;;1.63;;
10333;SDS011;5212;47.892;16.406;2023-02-01T20:24:17;3.20;;;1.30;;
10333;SDS011;5212;47.892;16.406;2023-02-01T20:26:44;4.93;;;1.80;;
10333;SDS011;5212;47.892;16.406;2023-02-01T20:29:11;4.20;;;1.57;;
10333;SDS011;5212;47.892;16.406;2023-02-01T20:31:37;2.03;;;1.20;;
10333;SDS011;5212;47.892;16.406;2023-02-01T20:34:04;2.80;;;1.50;;
10333;SDS011;5212;47.892;16.406;2023-02-01T20:36:32;2.60;;;1.37;;
10333;SDS011;5212;47.892;16.406;2023-02-01T20:38:59;3.37;;;1.40;;
10333;SDS011;5212;47.892;16.406;2023-02-01T20:41:26;2.60;;;1.17;;
10333;SDS011;5212;47.892;16.406;2023-02-01T20:43:53;3.03;;;1.50;;
10333;SDS011;5212;47.892;16.406;2023-02-01T20:46:19;2.10;;;1.30;;
10333;SDS011;5212;47.892;16.406;2023-02-01T20:48:48;2.67;;;1.30;;
10333;SDS011;5212;47.892;16.406;2023-02-01T20:51:16;3.13;;;1.43;;
10333;SDS011;5212;47.892;16.406;2023-02-01T20:53:43;2.87;;;1.30;;
10333;SDS011;5212;47.892;16.406;2023-02-01T20:56:11;3.87;;;1.60;;
10333;SDS011;5212;47.892;16.406;2023-02-01T20:58:38;1.40;;;1.20;;
10333;SDS011;5212;47.892;16.406;2023-02-01T21:01:04;3.23;;;1.20;;
10333;SDS011;5212;47.892;16.406;2023-02-01T21:03:31;2.73;;;1.30;;
10333;SDS011;5212;47.892;16.406;2023-02-01T21:05:59;3.30;;;1.50;;
10333;SDS011;5212;47.892;16.406;2023-02-01T21:08:26;3.37;;;1.50;;
10333;SDS011;5212;47.892;16.406;2023-02-01T21:10:55;3.00;;;1.70;;
10333;SDS011;5212;47.892;16.406;2023-02-01T21:13:22;3.23;;;1.50;;
10333;SDS011;5212;47.892;16.406;2023-02-01T21:15:49;3.83;;;1.53;;
10333;SDS011;5212;47.892;16.406;2023-02-01T21:18:15;5.00;;;1.60;;
10333;SDS011;5212;47.892;16.406;2023-02-01T21:20:42;5.30;;;1.73;;
10333;SDS011;5212;47.892;16.406;2023-02-01T21:23:12;3.40;;;1.40;;
10333;SDS011;5212;47.892;16.406;2023-02-01T21:25:39;2.77;;;1.30;;
10333;SDS011;5212;47.892;16.406;2023-02-01T21:28:06;3.50;;;1.60;;
10333;SDS011;5212;47.892;16.406;2023-02-01T21:30:33;3.47;;;1.43;;
10333;SDS011;5212;47.892;16.406;2023-02-01T21:32:59;4.70;;;1.80;;
10333;SDS011;5212;47.892;16.406;2023-02-01T21:35:25;5.30;;;1.63;;
10333;SDS011;5212;47.892;16.406;2023-02-01T21:37:52;3.23;;;1.50;;
10333;SDS011;5212;47.892;16.406;2023-02-01T21:40:19;2.70;;;1.30;;
10333;SDS011;5212;47.892;16.406;2023-02-01T21:42:45;3.10;;;1.53;;
10333;SDS011;5212;47.892;16.406;2023-02-01T21:45:13;1.40;;;1.30;;
10333;SDS011;5212;47.892;16.406;2023-02-01T21:47:40;3.13;;;1.67;;
10333;SDS011;5212;47.892;16.406;2023-02-01T21:50:08;1.63;;;1.33;;
10333;SDS011;5212;47.892;16.406;2023-02-01T21:52:38;1.57;;;1.10;;
10333;SDS011;5212;47.892;16.406;2023-02-01T21:55:05;1.80;;;1.43;;
10333;SDS011;5212;47.892;16.406;2023-02-01T21:57:32;2.77;;;1.53;;
10333;SDS011;5212;47.892;16.406;2023-02-01T21:59:59;3.27;;;1.60;;